createdAt,value
2023-01-26T00:02:24.178Z,100302.44
2023-01-26T00:04:51.729Z,100301.13
2023-01-26T00:07:18.942Z,100303.78
2023-01-26T00:09:46.154Z,100298.72
2023-01-26T00:12:13.649Z,100290.88
2023-01-26T00:14:50.214Z,100285.06
2023-01-26T00:17:25.933Z,100289.84
2023-01-26T00:19:54.305Z,100284.09
2023-01-26T00:22:21.852Z,100285.91
2023-01-26T00:24:49.051Z,100278.38
2023-01-26T00:27:16.278Z,100285.19
2023-01-26T00:29:43.681Z,100279.75
2023-01-26T00:32:10.896Z,100275.63
2023-01-26T00:34:38.136Z,100275.66
2023-01-26T00:37:05.537Z,100282.13
2023-01-26T00:39:32.739Z,100277.00
2023-01-26T00:42:07.090Z,100282.78
2023-01-26T00:44:38.819Z,100285.75
2023-01-26T00:47:06.386Z,100278.31
2023-01-26T00:49:34.365Z,100278.59
2023-01-26T00:52:01.937Z,100279.28
2023-01-26T00:54:30.032Z,100283.34
2023-01-26T00:56:57.257Z,100274.78
2023-01-26T00:59:24.736Z,100267.97
2023-01-26T01:01:52.293Z,100265.91
2023-01-26T01:04:19.507Z,100269.34
2023-01-26T01:06:46.954Z,100263.44
2023-01-26T01:09:14.112Z,100267.00
2023-01-26T01:11:42.907Z,100264.44
2023-01-26T01:14:10.364Z,100264.00
2023-01-26T01:16:38.229Z,100261.47
2023-01-26T01:19:05.511Z,100262.72
2023-01-26T01:21:33.091Z,100252.47
2023-01-26T01:24:00.630Z,100245.75
2023-01-26T01:26:27.859Z,100253.87
2023-01-26T01:28:55.936Z,100249.22
2023-01-26T01:31:23.255Z,100243.84
2023-01-26T01:33:50.565Z,100246.16
2023-01-26T01:36:19.190Z,100244.69
2023-01-26T01:38:46.579Z,100247.63
2023-01-26T01:41:14.705Z,100241.19
2023-01-26T01:43:42.122Z,100244.03
2023-01-26T01:46:17.699Z,100240.41
2023-01-26T01:48:52.965Z,100242.09
2023-01-26T01:51:21.973Z,100236.09
2023-01-26T01:53:50.315Z,100235.66
2023-01-26T01:56:21.606Z,100232.88
2023-01-26T01:58:49.355Z,100236.59
2023-01-26T02:01:16.855Z,100230.28
2023-01-26T02:03:44.616Z,100222.59
2023-01-26T02:06:15.215Z,100216.25
2023-01-26T02:08:46.565Z,100213.06
2023-01-26T02:11:15.126Z,100205.81
2023-01-26T02:13:42.756Z,100206.69
2023-01-26T02:16:10.328Z,100207.25
2023-01-26T02:18:37.665Z,100210.63
2023-01-26T02:21:07.009Z,100204.13
2023-01-26T02:23:44.918Z,100200.72
2023-01-26T02:26:14.565Z,100197.00
2023-01-26T02:28:42.549Z,100195.97
2023-01-26T02:31:10.364Z,100191.91
2023-01-26T02:33:37.669Z,100182.00
2023-01-26T02:36:05.810Z,100189.78
2023-01-26T02:38:53.852Z,100175.50
2023-01-26T02:41:40.127Z,100164.84
2023-01-26T02:44:08.433Z,100166.66
2023-01-26T02:46:35.926Z,100171.44
2023-01-26T02:49:22.232Z,100164.06
2023-01-26T02:51:49.669Z,100165.38
2023-01-26T02:54:35.676Z,100155.31
2023-01-26T02:57:03.253Z,100141.47
2023-01-26T02:59:30.458Z,100141.75
2023-01-26T03:01:57.864Z,100140.88
2023-01-26T03:04:25.380Z,100141.31
2023-01-26T03:06:52.591Z,100139.88
2023-01-26T03:09:19.796Z,100139.34
2023-01-26T03:11:47.627Z,100138.59
2023-01-26T03:14:16.702Z,100135.41
2023-01-26T03:16:43.903Z,100137.09
2023-01-26T03:19:32.960Z,100131.84
2023-01-26T03:22:18.754Z,100133.88
2023-01-26T03:25:05.439Z,100126.09
2023-01-26T03:27:38.618Z,100126.09
2023-01-26T03:30:06.349Z,100122.25
2023-01-26T03:32:33.641Z,100119.56
2023-01-26T03:35:01.503Z,100109.19
2023-01-26T03:37:34.557Z,100112.16
2023-01-26T03:40:23.758Z,100111.66
2023-01-26T03:43:09.920Z,100103.16
2023-01-26T03:45:55.799Z,100107.88
2023-01-26T03:48:42.299Z,100099.28
2023-01-26T03:51:28.397Z,100094.22
2023-01-26T03:54:15.360Z,100099.62
2023-01-26T03:56:42.643Z,100098.00
2023-01-26T03:59:11.111Z,100091.72
2023-01-26T04:01:39.854Z,100085.22
2023-01-26T04:04:27.161Z,100094.47
2023-01-26T04:07:14.258Z,100090.47
2023-01-26T04:09:42.163Z,100087.16
2023-01-26T04:12:11.910Z,100087.28
2023-01-26T04:14:58.407Z,100087.28
2023-01-26T04:17:45.273Z,100082.16
2023-01-26T04:20:32.102Z,100082.94
2023-01-26T04:22:59.570Z,100079.41
2023-01-26T04:25:27.690Z,100071.16
2023-01-26T04:27:56.410Z,100068.59
2023-01-26T04:30:24.011Z,100069.97
2023-01-26T04:32:52.127Z,100070.41
2023-01-26T04:35:19.313Z,100069.44
2023-01-26T04:37:47.668Z,100071.13
2023-01-26T04:40:15.057Z,100064.09
2023-01-26T04:42:42.277Z,100064.13
2023-01-26T04:45:10.448Z,100067.87
2023-01-26T04:47:38.094Z,100072.00
2023-01-26T04:50:05.463Z,100060.00
2023-01-26T04:52:32.997Z,100057.50
2023-01-26T04:55:00.351Z,100064.50
2023-01-26T04:57:28.050Z,100058.91
2023-01-26T04:59:55.608Z,100049.72
2023-01-26T05:02:23.040Z,100054.25
2023-01-26T05:04:50.361Z,100058.72
2023-01-26T05:07:17.867Z,100063.13
2023-01-26T05:09:45.299Z,100059.84
2023-01-26T05:12:31.404Z,100051.59
2023-01-26T05:15:01.025Z,100050.50
2023-01-26T05:17:28.930Z,100049.25
2023-01-26T05:19:56.408Z,100060.28
2023-01-26T05:22:25.575Z,100052.03
2023-01-26T05:24:55.850Z,100055.69
2023-01-26T05:27:23.234Z,100057.63
2023-01-26T05:29:51.471Z,100056.09
2023-01-26T05:32:18.875Z,100053.38
2023-01-26T05:34:46.291Z,100057.00
2023-01-26T05:37:15.478Z,100055.84
2023-01-26T05:39:42.808Z,100057.91
2023-01-26T05:42:12.798Z,100053.41
2023-01-26T05:44:40.404Z,100058.72
2023-01-26T05:47:08.929Z,100055.84
2023-01-26T05:49:38.747Z,100066.50
2023-01-26T05:52:08.423Z,100060.91
2023-01-26T05:54:35.631Z,100063.69
2023-01-26T05:57:03.141Z,100065.28
2023-01-26T05:59:31.560Z,100064.31
2023-01-26T06:01:59.023Z,100064.81
2023-01-26T06:04:26.913Z,100069.81
2023-01-26T06:06:55.099Z,100060.78
2023-01-26T06:09:22.656Z,100069.19
2023-01-26T06:11:51.053Z,100059.53
2023-01-26T06:14:19.575Z,100059.59
2023-01-26T06:16:46.749Z,100059.16
2023-01-26T06:19:14.573Z,100061.47
2023-01-26T06:21:42.219Z,100062.72
2023-01-26T06:24:09.532Z,100058.34
2023-01-26T06:26:37.196Z,100057.25
2023-01-26T06:29:04.742Z,100060.56
2023-01-26T06:31:32.708Z,100057.66
2023-01-26T06:34:00.493Z,100058.66
2023-01-26T06:36:28.415Z,100059.31
2023-01-26T06:38:57.128Z,100055.09
2023-01-26T06:41:25.155Z,100062.38
2023-01-26T06:43:52.332Z,100055.78
2023-01-26T06:46:19.726Z,100059.81
2023-01-26T06:48:47.343Z,100058.13
2023-01-26T06:51:15.933Z,100057.00
2023-01-26T06:53:43.796Z,100055.38
2023-01-26T06:56:12.548Z,100059.12
2023-01-26T06:58:42.167Z,100046.03
2023-01-26T07:01:15.116Z,100044.37
2023-01-26T07:03:42.675Z,100048.41
2023-01-26T07:06:12.938Z,100051.00
2023-01-26T07:08:40.360Z,100047.44
2023-01-26T07:11:09.185Z,100051.97
2023-01-26T07:13:36.578Z,100044.22
2023-01-26T07:16:14.056Z,100047.94
2023-01-26T07:18:41.601Z,100040.63
2023-01-26T07:21:12.511Z,100041.28
2023-01-26T07:23:39.642Z,100035.62
2023-01-26T07:26:07.183Z,100039.00
2023-01-26T07:28:34.561Z,100037.50
2023-01-26T07:31:01.789Z,100036.81
2023-01-26T07:33:29.525Z,100042.09
2023-01-26T07:35:56.993Z,100036.13
2023-01-26T07:38:24.217Z,100036.53
2023-01-26T07:40:51.784Z,100028.56
2023-01-26T07:43:19.179Z,100029.94
2023-01-26T07:45:47.149Z,100029.63
2023-01-26T07:48:15.616Z,100031.50
2023-01-26T07:50:43.769Z,100025.47
2023-01-26T07:53:12.905Z,100025.78
2023-01-26T07:55:40.791Z,100031.53
2023-01-26T07:58:08.116Z,100033.53
2023-01-26T08:00:35.293Z,100043.00
2023-01-26T08:03:02.771Z,100028.03
2023-01-26T08:05:30.263Z,100026.91
2023-01-26T08:07:58.661Z,100018.66
2023-01-26T08:10:26.855Z,100027.28
2023-01-26T08:12:54.044Z,100025.19
2023-01-26T08:15:21.252Z,100032.91
2023-01-26T08:17:48.691Z,100030.87
2023-01-26T08:20:16.033Z,100031.00
2023-01-26T08:22:43.305Z,100028.88
2023-01-26T08:25:10.775Z,100023.44
2023-01-26T08:27:38.331Z,100023.47
2023-01-26T08:30:05.758Z,100033.37
2023-01-26T08:32:33.368Z,100025.06
2023-01-26T08:35:00.741Z,100026.34
2023-01-26T08:37:28.011Z,100028.44
2023-01-26T08:39:55.465Z,100024.53
2023-01-26T08:42:22.956Z,100028.78
2023-01-26T08:44:50.261Z,100020.06
2023-01-26T08:47:18.119Z,100018.78
2023-01-26T08:49:45.336Z,100025.38
2023-01-26T08:52:12.558Z,100027.91
2023-01-26T08:54:40.200Z,100022.00
2023-01-26T08:57:07.459Z,100024.59
2023-01-26T08:59:34.719Z,100025.25
2023-01-26T09:02:02.359Z,100020.66
2023-01-26T09:04:29.691Z,100024.22
2023-01-26T09:06:56.903Z,100025.66
2023-01-26T09:09:24.331Z,100024.06
2023-01-26T09:11:51.534Z,100030.34
2023-01-26T09:14:18.680Z,100031.19
2023-01-26T09:16:46.183Z,100021.13
2023-01-26T09:19:13.389Z,100028.94
2023-01-26T09:21:40.598Z,100023.97
2023-01-26T09:24:08.187Z,100025.47
2023-01-26T09:26:35.429Z,100024.81
2023-01-26T09:29:02.806Z,100017.91
2023-01-26T09:31:30.490Z,100023.00
2023-01-26T09:33:57.937Z,100017.88
2023-01-26T09:36:25.991Z,100019.19
2023-01-26T09:38:54.167Z,100009.91
2023-01-26T09:41:33.375Z,100013.03
2023-01-26T09:44:03.693Z,100014.44
2023-01-26T09:46:37.109Z,100012.81
2023-01-26T09:49:07.027Z,100000.75
2023-01-26T09:51:34.230Z,100001.81
2023-01-26T09:54:24.374Z,99997.94
2023-01-26T09:56:51.930Z,99998.88
2023-01-26T09:59:32.145Z,100002.72
2023-01-26T10:02:01.681Z,99999.69
2023-01-26T10:04:36.477Z,99987.09
2023-01-26T10:07:05.531Z,99975.06
2023-01-26T10:09:42.488Z,99977.34
2023-01-26T10:12:21.023Z,99977.00
2023-01-26T10:14:53.094Z,99974.12
2023-01-26T10:17:22.232Z,99977.59
2023-01-26T10:19:51.319Z,99969.44
2023-01-26T10:22:20.987Z,99961.84
2023-01-26T10:24:48.245Z,99963.34
2023-01-26T10:27:15.901Z,99955.87
2023-01-26T10:29:43.143Z,99956.50
2023-01-26T10:32:12.906Z,99956.19
2023-01-26T10:34:41.160Z,99942.28
2023-01-26T10:37:31.393Z,99939.00
2023-01-26T10:40:04.082Z,99938.25
2023-01-26T10:42:32.334Z,99939.44
2023-01-26T10:45:02.063Z,99931.13
2023-01-26T10:47:29.365Z,99942.81
2023-01-26T10:50:13.422Z,99934.38
2023-01-26T10:52:48.606Z,99927.47
2023-01-26T10:55:21.983Z,99925.19
2023-01-26T10:57:49.607Z,99929.56
2023-01-26T11:00:23.037Z,99930.38
2023-01-26T11:02:51.579Z,99923.34
2023-01-26T11:05:25.421Z,99919.88
2023-01-26T11:08:00.387Z,99918.28
2023-01-26T11:10:29.172Z,99903.78
2023-01-26T11:13:22.414Z,99919.91
2023-01-26T11:16:08.906Z,99914.94
2023-01-26T11:18:54.581Z,99908.03
2023-01-26T11:21:32.453Z,99908.50
2023-01-26T11:24:17.933Z,99896.53
2023-01-26T11:26:45.073Z,99893.16
2023-01-26T11:29:18.399Z,99886.56
2023-01-26T11:32:04.680Z,99886.28
2023-01-26T11:34:50.143Z,99885.94
2023-01-26T11:37:52.464Z,99892.38
2023-01-26T11:40:32.561Z,99883.16
2023-01-26T11:43:07.207Z,99885.16
2023-01-26T11:45:40.573Z,99878.41
2023-01-26T11:48:20.061Z,99878.50
2023-01-26T11:50:56.500Z,99870.09
2023-01-26T11:53:35.928Z,99870.44
2023-01-26T11:56:03.372Z,99857.00
2023-01-26T11:58:32.241Z,99862.19
2023-01-26T12:01:00.219Z,99859.41
2023-01-26T12:03:33.865Z,99851.41
2023-01-26T12:06:02.858Z,99849.53
2023-01-26T12:08:39.483Z,99835.44
2023-01-26T12:11:25.708Z,99833.03
2023-01-26T12:14:12.067Z,99826.72
2023-01-26T12:16:39.220Z,99825.37
2023-01-26T12:19:11.823Z,99824.94
2023-01-26T12:21:40.234Z,99820.56
2023-01-26T12:24:19.172Z,99813.84
2023-01-26T12:26:55.615Z,99812.81
2023-01-26T12:29:25.494Z,99823.50
2023-01-26T12:32:00.453Z,99812.31
2023-01-26T12:34:29.015Z,99819.78
2023-01-26T12:37:15.342Z,99810.75
2023-01-26T12:39:46.325Z,99812.06
2023-01-26T12:42:16.533Z,99819.47
2023-01-26T12:44:48.109Z,99811.25
2023-01-26T12:47:28.556Z,99803.00
2023-01-26T12:49:56.177Z,99792.44
2023-01-26T12:52:23.326Z,99808.75
2023-01-26T12:54:55.493Z,99800.16
2023-01-26T12:57:23.778Z,99793.56
2023-01-26T12:59:51.008Z,99794.28
2023-01-26T13:02:24.429Z,99795.44
2023-01-26T13:04:52.042Z,99797.47
2023-01-26T13:07:26.990Z,99791.09
2023-01-26T13:10:18.713Z,99793.75
2023-01-26T13:12:45.980Z,99799.31
2023-01-26T13:15:14.437Z,99784.44
2023-01-26T13:17:46.772Z,99791.94
2023-01-26T13:20:33.372Z,99796.34
2023-01-26T13:23:00.697Z,99789.69
2023-01-26T13:25:31.685Z,99786.97
2023-01-26T13:27:59.842Z,99782.84
2023-01-26T13:30:27.080Z,99781.91
2023-01-26T13:33:02.295Z,99784.12
2023-01-26T13:35:29.639Z,99783.66
2023-01-26T13:38:20.375Z,99783.59
2023-01-26T13:40:49.954Z,99788.06
2023-01-26T13:43:26.725Z,99786.34
2023-01-26T13:46:01.013Z,99789.84
2023-01-26T13:48:34.958Z,99790.13
2023-01-26T13:51:02.302Z,99790.81
2023-01-26T13:53:33.039Z,99790.69
2023-01-26T13:56:00.462Z,99792.41
2023-01-26T13:58:27.804Z,99786.78
2023-01-26T14:01:05.598Z,99788.69
2023-01-26T14:03:33.088Z,99782.53
2023-01-26T14:06:09.388Z,99776.09
2023-01-26T14:08:36.922Z,99778.06
2023-01-26T14:11:04.534Z,99777.28
2023-01-26T14:13:33.566Z,99778.78
2023-01-26T14:16:01.639Z,99775.25
2023-01-26T14:18:28.902Z,99775.59
2023-01-26T14:21:04.260Z,99773.69
2023-01-26T14:23:37.508Z,99778.25
2023-01-26T14:26:06.252Z,99778.03
2023-01-26T14:28:34.835Z,99780.37
2023-01-26T14:31:03.453Z,99787.53
2023-01-26T14:33:30.883Z,99786.25
2023-01-26T14:35:59.434Z,99784.34
2023-01-26T14:38:28.874Z,99785.56
2023-01-26T14:40:57.317Z,99786.03
2023-01-26T14:43:24.881Z,99787.44
2023-01-26T14:46:03.333Z,99779.00
2023-01-26T14:48:34.967Z,99776.34
2023-01-26T14:51:02.408Z,99774.06
2023-01-26T14:53:29.575Z,99771.38
2023-01-26T14:55:57.390Z,99771.69
2023-01-26T14:58:29.930Z,99773.03
2023-01-26T15:00:58.698Z,99770.38
2023-01-26T15:03:29.861Z,99769.81
2023-01-26T15:06:03.956Z,99766.75
2023-01-26T15:08:31.635Z,99768.59
2023-01-26T15:11:21.266Z,99773.41
2023-01-26T15:13:52.131Z,99771.66
2023-01-26T15:16:23.250Z,99779.84
2023-01-26T15:19:00.682Z,99780.41
2023-01-26T15:21:34.698Z,99777.03
2023-01-26T15:24:03.109Z,99779.22
2023-01-26T15:26:31.245Z,99772.25
2023-01-26T15:28:59.137Z,99780.53
2023-01-26T15:31:31.014Z,99777.22
2023-01-26T15:34:04.115Z,99771.72
2023-01-26T15:36:34.559Z,99776.66
2023-01-26T15:39:03.578Z,99771.41
2023-01-26T15:41:30.846Z,99773.81
2023-01-26T15:43:58.424Z,99771.75
2023-01-26T15:46:25.765Z,99775.19
2023-01-26T15:48:52.947Z,99767.81
2023-01-26T15:51:20.570Z,99776.09
2023-01-26T15:53:47.998Z,99773.44
2023-01-26T15:56:15.826Z,99773.94
2023-01-26T15:58:43.340Z,99778.56
2023-01-26T16:01:15.322Z,99773.53
2023-01-26T16:03:43.032Z,99783.78
2023-01-26T16:06:14.024Z,99778.28
2023-01-26T16:08:41.201Z,99783.88
2023-01-26T16:11:09.937Z,99781.09
2023-01-26T16:13:37.189Z,99780.63
2023-01-26T16:16:04.949Z,99778.22
2023-01-26T16:18:32.408Z,99775.41
2023-01-26T16:20:59.656Z,99777.94
2023-01-26T16:23:28.564Z,99774.53
2023-01-26T16:25:56.018Z,99774.00
2023-01-26T16:28:23.273Z,99776.75
2023-01-26T16:30:51.322Z,99777.84
2023-01-26T16:33:21.251Z,99781.59
2023-01-26T16:35:48.588Z,99768.00
2023-01-26T16:38:15.766Z,99776.00
2023-01-26T16:40:44.831Z,99779.66
2023-01-26T16:43:14.242Z,99781.78
2023-01-26T16:45:41.466Z,99776.16
2023-01-26T16:48:11.307Z,99773.81
2023-01-26T16:50:38.555Z,99780.75
2023-01-26T16:53:15.061Z,99775.62
2023-01-26T16:55:42.554Z,99776.44
2023-01-26T16:58:09.783Z,99774.38
2023-01-26T17:00:37.083Z,99773.97
2023-01-26T17:03:04.959Z,99766.22
2023-01-26T17:05:32.205Z,99777.66
2023-01-26T17:07:59.532Z,99771.78
2023-01-26T17:10:27.062Z,99762.50
2023-01-26T17:12:54.298Z,99762.94
2023-01-26T17:15:21.481Z,99757.03
2023-01-26T17:17:49.331Z,99758.09
2023-01-26T17:20:19.601Z,99762.34
2023-01-26T17:22:47.606Z,99764.03
2023-01-26T17:25:17.051Z,99756.87
2023-01-26T17:27:45.248Z,99753.19
2023-01-26T17:30:12.477Z,99753.88
2023-01-26T17:32:39.932Z,99747.25
2023-01-26T17:35:07.282Z,99756.34
2023-01-26T17:37:35.657Z,99748.13
2023-01-26T17:40:03.453Z,99741.84
2023-01-26T17:42:32.962Z,99741.28
2023-01-26T17:45:00.803Z,99751.84
2023-01-26T17:47:28.302Z,99749.63
2023-01-26T17:49:55.691Z,99750.06
2023-01-26T17:52:23.005Z,99749.16
2023-01-26T17:54:50.452Z,99743.81
2023-01-26T17:57:17.813Z,99739.97
2023-01-26T17:59:45.026Z,99736.81
2023-01-26T18:02:12.684Z,99737.44
2023-01-26T18:04:40.228Z,99737.75
2023-01-26T18:07:07.529Z,99734.13
2023-01-26T18:09:34.670Z,99734.41
2023-01-26T18:12:02.148Z,99732.06
2023-01-26T18:14:30.103Z,99747.59
2023-01-26T18:16:57.264Z,99743.31
2023-01-26T18:19:25.026Z,99751.75
2023-01-26T18:21:52.331Z,99739.88
2023-01-26T18:24:19.640Z,99743.53
2023-01-26T18:26:47.155Z,99744.28
2023-01-26T18:29:15.043Z,99742.87
2023-01-26T18:31:43.376Z,99746.62
2023-01-26T18:34:11.191Z,99748.44
2023-01-26T18:36:38.440Z,99741.03
2023-01-26T18:39:07.153Z,99745.34
2023-01-26T18:41:35.281Z,99736.38
2023-01-26T18:44:03.777Z,99740.00
2023-01-26T18:46:31.377Z,99740.66
2023-01-26T18:49:03.681Z,99740.53
2023-01-26T18:51:34.847Z,99744.00
2023-01-26T18:54:04.021Z,99738.88
2023-01-26T18:56:32.147Z,99740.69
2023-01-26T18:58:59.686Z,99737.97
2023-01-26T19:01:27.457Z,99739.69
2023-01-26T19:03:55.713Z,99734.25
2023-01-26T19:06:23.582Z,99734.03
2023-01-26T19:08:59.414Z,99723.62
2023-01-26T19:11:30.855Z,99731.88
2023-01-26T19:13:58.805Z,99735.56
2023-01-26T19:16:26.068Z,99722.53
2023-01-26T19:18:55.431Z,99719.31
2023-01-26T19:21:24.745Z,99718.69
2023-01-26T19:23:52.763Z,99717.28
2023-01-26T19:26:21.322Z,99711.87
2023-01-26T19:28:50.744Z,99716.41
2023-01-26T19:31:19.379Z,99711.91
2023-01-26T19:33:50.614Z,99711.81
2023-01-26T19:36:18.495Z,99708.09
2023-01-26T19:38:46.186Z,99706.38
2023-01-26T19:41:13.842Z,99701.06
2023-01-26T19:43:41.938Z,99703.47
2023-01-26T19:46:11.740Z,99700.00
2023-01-26T19:48:39.226Z,99693.19
2023-01-26T19:51:13.905Z,99697.84
2023-01-26T19:53:42.344Z,99695.69
2023-01-26T19:56:14.281Z,99694.09
2023-01-26T19:58:41.516Z,99689.22
2023-01-26T20:01:10.133Z,99697.00
2023-01-26T20:03:37.947Z,99696.87
2023-01-26T20:06:05.716Z,99701.34
2023-01-26T20:08:33.202Z,99705.28
2023-01-26T20:11:04.658Z,99699.09
2023-01-26T20:13:32.466Z,99707.47
2023-01-26T20:15:59.790Z,99708.59
2023-01-26T20:18:27.651Z,99711.69
2023-01-26T20:20:55.956Z,99708.25
2023-01-26T20:23:23.837Z,99708.22
2023-01-26T20:25:54.583Z,99701.34
2023-01-26T20:28:21.931Z,99696.16
2023-01-26T20:30:49.376Z,99693.25
2023-01-26T20:33:17.140Z,99691.53
2023-01-26T20:35:44.400Z,99693.97
2023-01-26T20:38:11.877Z,99701.69
2023-01-26T20:40:39.933Z,99704.66
2023-01-26T20:43:07.304Z,99696.34
2023-01-26T20:45:34.700Z,99695.06
2023-01-26T20:48:02.402Z,99692.09
2023-01-26T20:50:35.779Z,99690.69
2023-01-26T20:53:03.409Z,99701.09
2023-01-26T20:55:30.659Z,99689.09
2023-01-26T20:57:57.824Z,99690.38
2023-01-26T21:00:25.294Z,99684.84
2023-01-26T21:02:52.491Z,99683.97
2023-01-26T21:05:20.140Z,99682.84
2023-01-26T21:07:47.698Z,99683.56
2023-01-26T21:10:15.242Z,99684.66
2023-01-26T21:12:42.361Z,99677.03
2023-01-26T21:15:10.164Z,99675.75
2023-01-26T21:17:37.525Z,99679.69
2023-01-26T21:20:05.002Z,99677.66
2023-01-26T21:22:32.563Z,99684.19
2023-01-26T21:24:59.745Z,99675.19
2023-01-26T21:27:26.962Z,99672.41
2023-01-26T21:29:54.419Z,99670.09
2023-01-26T21:32:21.593Z,99671.03
2023-01-26T21:34:48.824Z,99664.19
2023-01-26T21:37:16.441Z,99657.37
2023-01-26T21:39:43.680Z,99655.16
2023-01-26T21:42:10.860Z,99661.47
2023-01-26T21:44:58.261Z,99656.19
2023-01-26T21:47:25.505Z,99658.75
2023-01-26T21:49:53.832Z,99645.31
2023-01-26T21:52:39.768Z,99647.56
2023-01-26T21:55:07.559Z,99652.94
2023-01-26T21:57:53.235Z,99651.31
2023-01-26T22:00:20.800Z,99649.94
2023-01-26T22:02:48.356Z,99647.44
2023-01-26T22:05:16.733Z,99639.97
2023-01-26T22:07:43.915Z,99636.34
2023-01-26T22:10:12.135Z,99641.31
2023-01-26T22:12:39.573Z,99635.72
2023-01-26T22:15:07.091Z,99636.13
2023-01-26T22:17:34.669Z,99639.78
2023-01-26T22:20:02.302Z,99630.69
2023-01-26T22:22:29.803Z,99636.56
2023-01-26T22:24:57.750Z,99633.34
2023-01-26T22:27:24.973Z,99628.66
2023-01-26T22:29:52.236Z,99629.53
2023-01-26T22:32:19.725Z,99623.22
2023-01-26T22:34:46.898Z,99624.53
2023-01-26T22:37:14.067Z,99619.25
2023-01-26T22:39:41.591Z,99627.84
2023-01-26T22:42:08.764Z,99615.69
2023-01-26T22:44:36.578Z,99617.59
2023-01-26T22:47:04.813Z,99617.91
2023-01-26T22:49:31.960Z,99615.97
2023-01-26T22:51:59.103Z,99613.94
2023-01-26T22:54:27.762Z,99609.88
2023-01-26T22:56:54.979Z,99606.38
2023-01-26T22:59:22.173Z,99600.69
2023-01-26T23:01:49.647Z,99596.44
2023-01-26T23:04:16.890Z,99598.97
2023-01-26T23:06:44.046Z,99604.22
2023-01-26T23:09:11.567Z,99610.34
2023-01-26T23:11:38.758Z,99603.47
2023-01-26T23:14:06.072Z,99606.69
2023-01-26T23:16:33.615Z,99601.66
2023-01-26T23:19:00.841Z,99598.78
2023-01-26T23:21:28.389Z,99599.94
2023-01-26T23:23:55.938Z,99592.13
2023-01-26T23:26:23.117Z,99597.37
2023-01-26T23:28:50.364Z,99597.22
2023-01-26T23:31:18.125Z,99591.50
2023-01-26T23:33:45.652Z,99590.22
2023-01-26T23:36:13.103Z,99597.28
2023-01-26T23:38:40.756Z,99592.06
2023-01-26T23:41:11.898Z,99590.53
2023-01-26T23:43:39.175Z,99590.41
2023-01-26T23:46:06.927Z,99586.34
2023-01-26T23:48:34.104Z,99579.97
2023-01-26T23:51:02.117Z,99582.13
2023-01-26T23:53:30.700Z,99585.62
2023-01-26T23:55:58.940Z,99582.31
2023-01-26T23:58:26.113Z,99581.16
